createdAt,value
2023-04-22T00:00:26.107Z,20.30
2023-04-22T00:01:28.959Z,20.30
2023-04-22T00:02:32.565Z,20.30
2023-04-22T00:03:35.366Z,20.30
2023-04-22T00:04:38.332Z,20.30
2023-04-22T00:05:44.843Z,20.30
2023-04-22T00:06:47.755Z,20.30
2023-04-22T00:07:50.280Z,20.30
2023-04-22T00:08:52.678Z,20.30
2023-04-22T00:09:55.233Z,20.30
2023-04-22T00:10:57.772Z,20.30
2023-04-22T00:12:01.883Z,20.30
2023-04-22T00:13:04.334Z,20.30
2023-04-22T00:14:06.745Z,20.30
2023-04-22T00:15:09.917Z,20.30
2023-04-22T00:16:12.398Z,20.30
2023-04-22T00:17:15.092Z,20.30
2023-04-22T00:18:17.839Z,20.30
2023-04-22T00:19:20.272Z,20.30
2023-04-22T00:20:22.797Z,20.20
2023-04-22T00:21:25.310Z,20.20
2023-04-22T00:22:27.724Z,20.20
2023-04-22T00:23:30.222Z,20.20
2023-04-22T00:24:32.895Z,20.20
2023-04-22T00:25:35.479Z,20.20
2023-04-22T00:26:38.033Z,20.20
2023-04-22T00:27:40.612Z,20.20
2023-04-22T00:28:43.123Z,20.30
2023-04-22T00:29:45.576Z,20.20
2023-04-22T00:30:48.074Z,20.20
2023-04-22T00:31:50.546Z,20.20
2023-04-22T00:32:53.671Z,20.30
2023-04-22T00:33:56.006Z,20.30
2023-04-22T00:34:59.495Z,20.30
2023-04-22T00:36:01.935Z,20.20
2023-04-22T00:37:04.324Z,20.20
2023-04-22T00:38:06.687Z,20.20
2023-04-22T00:39:09.233Z,20.20
2023-04-22T00:40:12.794Z,20.20
2023-04-22T00:41:15.161Z,20.20
2023-04-22T00:42:17.532Z,20.20
2023-04-22T00:43:19.905Z,20.20
2023-04-22T00:44:23.063Z,20.20
2023-04-22T00:45:26.902Z,20.20
2023-04-22T00:46:29.430Z,20.20
2023-04-22T00:47:32.462Z,20.20
2023-04-22T00:48:37.326Z,20.20
2023-04-22T00:49:40.283Z,20.20
2023-04-22T00:50:43.162Z,20.20
2023-04-22T00:51:45.525Z,20.20
2023-04-22T00:52:48.037Z,20.20
2023-04-22T00:53:50.527Z,20.20
2023-04-22T00:54:52.948Z,20.20
2023-04-22T00:55:55.495Z,20.20
2023-04-22T00:56:58.880Z,20.20
2023-04-22T00:58:03.577Z,20.20
2023-04-22T00:59:06.051Z,20.20
2023-04-22T01:00:10.320Z,20.20
2023-04-22T01:01:13.161Z,20.20
2023-04-22T01:02:16.066Z,20.20
2023-04-22T01:03:20.634Z,20.20
2023-04-22T01:04:24.688Z,20.20
2023-04-22T01:05:29.604Z,20.20
2023-04-22T01:06:32.547Z,20.20
2023-04-22T01:07:35.648Z,20.20
2023-04-22T01:08:38.751Z,20.20
2023-04-22T01:09:42.311Z,20.20
2023-04-22T01:10:45.149Z,20.20
2023-04-22T01:11:48.038Z,20.20
2023-04-22T01:12:50.488Z,20.20
2023-04-22T01:13:53.002Z,20.20
2023-04-22T01:14:56.482Z,20.20
2023-04-22T01:16:01.390Z,20.20
2023-04-22T01:17:04.473Z,20.20
2023-04-22T01:18:07.149Z,20.20
2023-04-22T01:19:11.601Z,20.20
2023-04-22T01:20:14.032Z,20.20
2023-04-22T01:21:16.993Z,20.30
2023-04-22T01:22:21.248Z,20.20
2023-04-22T01:23:23.768Z,20.20
2023-04-22T01:24:26.627Z,20.20
2023-04-22T01:25:29.613Z,20.20
2023-04-22T01:26:32.277Z,20.20
2023-04-22T01:27:35.587Z,20.20
2023-04-22T01:28:38.620Z,20.20
2023-04-22T01:29:41.427Z,20.20
2023-04-22T01:30:44.582Z,20.20
2023-04-22T01:31:47.603Z,20.20
2023-04-22T01:32:50.377Z,20.20
2023-04-22T01:33:57.008Z,20.20
2023-04-22T01:34:59.543Z,20.20
2023-04-22T01:36:02.169Z,20.20
2023-04-22T01:37:04.713Z,20.20
2023-04-22T01:38:09.690Z,20.20
2023-04-22T01:39:12.738Z,20.20
2023-04-22T01:40:19.826Z,20.20
2023-04-22T01:41:22.534Z,20.20
2023-04-22T01:42:25.317Z,20.20
2023-04-22T01:43:28.891Z,20.20
2023-04-22T01:44:32.403Z,20.20
2023-04-22T01:45:34.977Z,20.20
2023-04-22T01:46:38.832Z,20.10
2023-04-22T01:47:42.353Z,20.20
2023-04-22T01:48:50.396Z,20.00
2023-04-22T01:49:53.089Z,19.80
2023-04-22T01:50:56.048Z,19.60
2023-04-22T01:51:59.882Z,19.40
2023-04-22T01:53:02.412Z,19.40
2023-04-22T01:54:05.668Z,19.40
2023-04-22T01:55:09.107Z,19.40
2023-04-22T01:56:11.772Z,19.30
2023-04-22T01:57:16.275Z,19.30
2023-04-22T01:58:18.687Z,19.20
2023-04-22T01:59:21.916Z,19.20
2023-04-22T02:00:24.948Z,19.10
2023-04-22T02:01:27.429Z,19.20
2023-04-22T02:02:30.015Z,19.10
2023-04-22T02:03:32.746Z,19.10
2023-04-22T02:04:35.755Z,19.10
2023-04-22T02:05:39.734Z,19.00
2023-04-22T02:06:42.253Z,19.00
2023-04-22T02:07:44.733Z,19.00
2023-04-22T02:08:49.222Z,19.00
2023-04-22T02:09:52.544Z,19.00
2023-04-22T02:10:55.223Z,19.00
2023-04-22T02:11:57.746Z,19.00
2023-04-22T02:13:00.399Z,18.90
2023-04-22T02:14:02.933Z,18.90
2023-04-22T02:15:06.194Z,18.70
2023-04-22T02:16:09.302Z,18.60
2023-04-22T02:17:11.901Z,18.60
2023-04-22T02:18:17.969Z,18.60
2023-04-22T02:19:20.405Z,18.70
2023-04-22T02:20:22.869Z,18.70
2023-04-22T02:21:28.422Z,18.70
2023-04-22T02:22:32.010Z,18.70
2023-04-22T02:23:34.991Z,18.70
2023-04-22T02:24:37.527Z,18.70
2023-04-22T02:25:40.667Z,18.70
2023-04-22T02:26:43.305Z,18.70
2023-04-22T02:27:45.884Z,18.70
2023-04-22T02:28:48.507Z,18.70
2023-04-22T02:29:51.461Z,18.70
2023-04-22T02:30:53.907Z,18.70
2023-04-22T02:32:00.144Z,18.70
2023-04-22T02:33:03.895Z,18.70
2023-04-22T02:34:06.358Z,18.70
2023-04-22T02:35:11.316Z,18.70
2023-04-22T02:36:14.837Z,18.80
2023-04-22T02:37:17.273Z,18.80
2023-04-22T02:38:20.107Z,18.80
2023-04-22T02:39:22.603Z,18.80
2023-04-22T02:40:25.495Z,18.80
2023-04-22T02:41:28.310Z,18.80
2023-04-22T02:42:31.129Z,18.70
2023-04-22T02:43:33.508Z,18.70
2023-04-22T02:44:36.013Z,18.70
2023-04-22T02:45:38.660Z,18.70
2023-04-22T02:46:41.078Z,18.70
2023-04-22T02:47:44.020Z,18.70
2023-04-22T02:48:46.567Z,18.70
2023-04-22T02:49:49.036Z,18.70
2023-04-22T02:50:51.694Z,18.60
2023-04-22T02:51:54.226Z,18.50
2023-04-22T02:52:56.771Z,18.50
2023-04-22T02:54:00.267Z,18.50
2023-04-22T02:55:02.846Z,18.50
2023-04-22T02:56:05.769Z,18.50
2023-04-22T02:57:08.709Z,18.60
2023-04-22T02:58:11.243Z,18.60
2023-04-22T02:59:13.649Z,18.50
2023-04-22T03:00:16.711Z,18.50
2023-04-22T03:01:19.256Z,18.50
2023-04-22T03:02:22.693Z,18.50
2023-04-22T03:03:54.986Z,18.50
2023-04-22T03:05:00.838Z,18.50
2023-04-22T03:06:05.048Z,18.50
2023-04-22T03:07:07.848Z,18.50
2023-04-22T03:08:10.968Z,18.50
2023-04-22T03:09:13.552Z,18.50
2023-04-22T03:10:16.208Z,18.50
2023-04-22T03:11:18.925Z,18.50
2023-04-22T03:12:21.600Z,18.40
2023-04-22T03:13:24.163Z,18.40
2023-04-22T03:14:27.724Z,18.40
2023-04-22T03:15:30.639Z,18.40
2023-04-22T03:16:33.550Z,18.40
2023-04-22T03:17:39.732Z,18.40
2023-04-22T03:18:45.719Z,18.40
2023-04-22T03:19:48.332Z,18.40
2023-04-22T03:20:50.951Z,18.40
2023-04-22T03:21:53.946Z,18.40
2023-04-22T03:22:56.658Z,18.40
2023-04-22T03:24:00.718Z,18.40
2023-04-22T03:25:07.094Z,18.40
2023-04-22T03:26:12.076Z,18.40
2023-04-22T03:27:17.114Z,18.40
2023-04-22T03:28:19.494Z,18.30
2023-04-22T03:29:21.910Z,18.20
2023-04-22T03:30:24.407Z,18.20
2023-04-22T03:31:27.082Z,18.20
2023-04-22T03:32:29.532Z,18.20
2023-04-22T03:33:55.236Z,18.20
2023-04-22T03:35:05.502Z,18.20
2023-04-22T03:36:08.291Z,18.20
2023-04-22T03:37:10.900Z,18.20
2023-04-22T03:38:13.430Z,18.10
2023-04-22T03:39:17.494Z,18.10
2023-04-22T03:40:20.838Z,18.10
2023-04-22T03:41:26.444Z,18.10
2023-04-22T03:42:28.846Z,18.10
2023-04-22T03:43:32.514Z,18.10
2023-04-22T03:44:42.319Z,18.10
2023-04-22T03:45:45.828Z,18.10
2023-04-22T03:46:53.671Z,18.10
2023-04-22T03:47:59.882Z,18.10
2023-04-22T03:49:11.558Z,18.00
2023-04-22T03:50:13.921Z,18.00
2023-04-22T03:51:16.508Z,18.00
2023-04-22T03:52:18.960Z,18.00
2023-04-22T03:53:29.208Z,18.00
2023-04-22T03:54:32.982Z,18.00
2023-04-22T03:55:35.641Z,18.00
2023-04-22T03:56:38.251Z,18.00
2023-04-22T03:57:41.008Z,18.00
2023-04-22T03:58:43.632Z,18.00
2023-04-22T03:59:46.077Z,18.00
2023-04-22T04:00:49.027Z,17.90
2023-04-22T04:01:53.892Z,18.00
2023-04-22T04:03:00.904Z,18.20
2023-04-22T04:04:03.741Z,18.50
2023-04-22T04:05:26.740Z,18.60
2023-04-22T04:06:29.334Z,18.50
2023-04-22T04:07:31.733Z,18.40
2023-04-22T04:08:34.117Z,18.30
2023-04-22T04:09:36.787Z,18.50
2023-04-22T04:10:39.420Z,18.70
2023-04-22T04:11:42.151Z,18.90
2023-04-22T04:12:45.444Z,19.10
2023-04-22T04:13:48.006Z,19.20
2023-04-22T04:14:54.831Z,19.40
2023-04-22T04:16:00.382Z,19.50
2023-04-22T04:17:05.386Z,19.60
2023-04-22T04:18:11.544Z,19.70
2023-04-22T04:19:14.074Z,19.80
2023-04-22T04:20:16.719Z,19.90
2023-04-22T04:21:19.628Z,19.90
2023-04-22T04:22:29.126Z,20.00
2023-04-22T04:23:34.905Z,20.10
2023-04-22T04:24:42.194Z,20.10
2023-04-22T04:25:52.000Z,20.20
2023-04-22T04:26:54.805Z,20.10
2023-04-22T04:28:09.565Z,19.80
2023-04-22T04:29:13.642Z,19.30
2023-04-22T04:30:21.484Z,19.20
2023-04-22T04:31:29.154Z,19.30
2023-04-22T04:32:36.743Z,19.50
2023-04-22T04:33:43.396Z,19.70
2023-04-22T04:34:46.091Z,19.90
2023-04-22T04:35:51.559Z,20.00
2023-04-22T04:36:57.714Z,20.10
2023-04-22T04:38:08.028Z,20.10
2023-04-22T04:39:11.516Z,20.20
2023-04-22T04:40:14.492Z,20.00
2023-04-22T04:41:22.016Z,19.60
2023-04-22T04:42:25.862Z,19.50
2023-04-22T04:43:36.027Z,19.60
2023-04-22T04:44:48.790Z,19.80
2023-04-22T04:45:52.416Z,19.90
2023-04-22T04:47:01.993Z,19.90
2023-04-22T04:48:07.137Z,20.10
2023-04-22T04:49:12.986Z,20.10
2023-04-22T04:50:35.693Z,20.20
2023-04-22T04:51:39.475Z,20.20
2023-04-22T04:52:42.490Z,20.30
2023-04-22T04:53:45.338Z,20.30
2023-04-22T04:54:47.829Z,20.30
2023-04-22T04:55:51.137Z,20.40
2023-04-22T04:56:58.552Z,20.40
2023-04-22T04:58:01.358Z,20.40
2023-04-22T04:59:03.952Z,20.50
2023-04-22T05:00:08.878Z,20.50
2023-04-22T05:01:11.668Z,20.50
2023-04-22T05:02:14.782Z,20.50
2023-04-22T05:03:17.602Z,20.50
2023-04-22T05:04:22.329Z,20.50
2023-04-22T05:05:24.961Z,20.50
2023-04-22T05:06:27.944Z,20.50
2023-04-22T05:07:37.629Z,20.50
2023-04-22T05:08:42.170Z,20.50
2023-04-22T05:09:45.738Z,20.50
2023-04-22T05:10:48.546Z,20.50
2023-04-22T05:11:52.442Z,20.60
2023-04-22T05:12:56.741Z,20.50
2023-04-22T05:14:00.855Z,20.60
2023-04-22T05:15:10.183Z,20.50
2023-04-22T05:16:13.652Z,20.50
2023-04-22T05:17:16.540Z,20.60
2023-04-22T05:18:18.874Z,20.50
2023-04-22T05:19:21.306Z,20.60
2023-04-22T05:20:26.292Z,20.60
2023-04-22T05:21:28.811Z,20.60
2023-04-22T05:22:31.736Z,20.60
2023-04-22T05:23:34.200Z,20.60
2023-04-22T05:24:37.819Z,20.60
2023-04-22T05:25:40.943Z,20.60
2023-04-22T05:26:46.448Z,20.60
2023-04-22T05:27:52.550Z,20.60
2023-04-22T05:28:55.807Z,20.60
2023-04-22T05:29:58.484Z,20.70
2023-04-22T05:31:07.150Z,20.60
2023-04-22T05:32:10.191Z,20.70
2023-04-22T05:33:12.687Z,20.70
2023-04-22T05:34:15.195Z,20.70
2023-04-22T05:35:17.641Z,20.70
2023-04-22T05:36:20.339Z,20.70
2023-04-22T05:37:23.775Z,20.70
2023-04-22T05:38:28.669Z,20.70
2023-04-22T05:39:32.401Z,20.70
2023-04-22T05:40:37.940Z,20.70
2023-04-22T05:41:41.679Z,20.80
2023-04-22T05:42:46.009Z,20.70
2023-04-22T05:43:48.493Z,20.70
2023-04-22T05:44:53.286Z,20.80
2023-04-22T05:45:56.322Z,20.70
2023-04-22T05:46:58.862Z,20.80
2023-04-22T05:48:02.783Z,20.70
2023-04-22T05:49:09.174Z,20.80
2023-04-22T05:50:45.971Z,20.80
2023-04-22T05:51:48.801Z,20.80
2023-04-22T05:52:53.859Z,20.80
2023-04-22T05:53:56.801Z,20.80
2023-04-22T05:54:59.913Z,20.80
2023-04-22T05:56:02.994Z,20.80
2023-04-22T05:57:05.421Z,20.80
2023-04-22T05:58:08.037Z,20.80
2023-04-22T05:59:21.868Z,20.80
2023-04-22T06:00:25.373Z,20.80
2023-04-22T06:01:42.406Z,20.80
2023-04-22T06:02:45.950Z,20.80
2023-04-22T06:03:48.750Z,20.80
2023-04-22T06:04:51.578Z,20.80
2023-04-22T06:05:54.455Z,20.80
2023-04-22T06:06:56.995Z,20.80
2023-04-22T06:07:59.763Z,20.80
2023-04-22T06:09:02.848Z,20.90
2023-04-22T06:10:06.244Z,20.80
2023-04-22T06:11:09.103Z,20.90
2023-04-22T06:12:12.435Z,20.80
2023-04-22T06:13:15.386Z,20.90
2023-04-22T06:14:18.125Z,20.90
2023-04-22T06:15:21.866Z,20.90
2023-04-22T06:16:25.249Z,20.90
2023-04-22T06:17:28.264Z,20.90
2023-04-22T06:18:32.622Z,20.70
2023-04-22T06:19:35.933Z,20.70
2023-04-22T06:20:39.063Z,20.60
2023-04-22T06:21:42.595Z,20.70
2023-04-22T06:22:45.012Z,20.70
2023-04-22T06:23:47.415Z,20.80
2023-04-22T06:24:50.471Z,20.80
2023-04-22T06:25:53.028Z,20.80
2023-04-22T06:26:56.401Z,20.80
2023-04-22T06:27:59.807Z,20.90
2023-04-22T06:29:05.332Z,20.90
2023-04-22T06:30:11.194Z,20.90
2023-04-22T06:31:13.638Z,20.90
2023-04-22T06:32:16.379Z,20.90
2023-04-22T06:33:18.900Z,20.90
2023-04-22T06:34:21.523Z,20.90
2023-04-22T06:35:26.010Z,21.00
2023-04-22T06:36:30.893Z,21.00
2023-04-22T06:37:36.967Z,21.00
2023-04-22T06:38:42.097Z,21.00
2023-04-22T06:40:20.271Z,21.00
2023-04-22T06:41:24.133Z,21.00
2023-04-22T06:42:29.270Z,21.00
2023-04-22T06:43:55.092Z,21.00
2023-04-22T06:45:16.235Z,21.00
2023-04-22T06:46:42.992Z,21.00
2023-04-22T06:48:06.034Z,21.00
2023-04-22T06:49:23.936Z,21.00
2023-04-22T06:50:43.890Z,21.00
2023-04-22T06:51:47.512Z,21.00
2023-04-22T06:52:50.122Z,21.00
2023-04-22T06:53:53.286Z,21.10
2023-04-22T06:54:55.823Z,21.10
2023-04-22T06:55:58.298Z,21.10
2023-04-22T06:57:01.699Z,21.10
2023-04-22T06:58:05.096Z,21.10
2023-04-22T06:59:07.941Z,21.10
2023-04-22T07:00:11.871Z,21.10
2023-04-22T07:01:15.478Z,21.10
2023-04-22T07:02:18.383Z,21.10
2023-04-22T07:03:21.005Z,21.10
2023-04-22T07:04:34.441Z,21.10
2023-04-22T07:05:38.542Z,21.00
2023-04-22T07:06:43.397Z,21.00
2023-04-22T07:07:46.530Z,21.10
2023-04-22T07:08:53.858Z,21.10
2023-04-22T07:09:56.817Z,21.10
2023-04-22T07:11:02.666Z,21.10
2023-04-22T07:12:34.752Z,21.10
2023-04-22T07:13:37.075Z,21.10
2023-04-22T07:14:46.402Z,21.10
2023-04-22T07:15:48.916Z,21.10
2023-04-22T07:16:51.885Z,21.10
2023-04-22T07:17:55.703Z,21.10
2023-04-22T07:19:00.321Z,21.10
2023-04-22T07:20:03.062Z,21.10
2023-04-22T07:21:05.750Z,21.10
2023-04-22T07:22:08.673Z,21.10
2023-04-22T07:23:11.717Z,21.10
2023-04-22T07:24:14.435Z,21.10
2023-04-22T07:25:17.546Z,21.10
2023-04-22T07:26:20.413Z,21.10
2023-04-22T07:27:23.038Z,21.10
2023-04-22T07:28:25.543Z,21.10
2023-04-22T07:29:27.983Z,21.10
2023-04-22T07:30:30.407Z,21.10
2023-04-22T07:31:35.187Z,21.10
2023-04-22T07:32:38.149Z,21.10
2023-04-22T07:33:40.700Z,21.10
2023-04-22T07:34:43.381Z,21.10
2023-04-22T07:35:47.212Z,21.10
2023-04-22T07:36:52.433Z,21.10
2023-04-22T07:37:55.358Z,21.10
2023-04-22T07:38:57.768Z,21.10
2023-04-22T07:40:00.210Z,21.10
2023-04-22T07:41:02.811Z,21.10
2023-04-22T07:42:06.109Z,21.10
2023-04-22T07:43:09.000Z,21.20
2023-04-22T07:44:16.339Z,21.10
2023-04-22T07:45:19.759Z,21.10
2023-04-22T07:46:22.450Z,21.10
2023-04-22T07:47:25.189Z,21.10
2023-04-22T07:48:27.981Z,21.10
2023-04-22T07:49:30.606Z,21.00
2023-04-22T07:50:33.677Z,21.00
2023-04-22T07:51:36.809Z,21.10
2023-04-22T07:52:39.544Z,21.10
2023-04-22T07:53:42.359Z,21.20
2023-04-22T07:54:44.904Z,21.20
2023-04-22T07:55:49.604Z,21.10
2023-04-22T07:56:52.352Z,21.20
2023-04-22T07:57:55.346Z,21.20
2023-04-22T07:58:57.759Z,21.20
2023-04-22T08:00:01.852Z,21.20
2023-04-22T08:01:14.409Z,21.20
2023-04-22T08:02:16.992Z,21.20
2023-04-22T08:03:19.739Z,21.20
2023-04-22T08:04:25.714Z,21.20
2023-04-22T08:05:28.828Z,21.20
2023-04-22T08:06:31.947Z,21.20
2023-04-22T08:07:34.458Z,21.20
2023-04-22T08:08:37.384Z,21.20
2023-04-22T08:09:40.611Z,21.20
2023-04-22T08:10:43.309Z,21.20
2023-04-22T08:11:45.833Z,21.20
2023-04-22T08:12:48.310Z,21.20
2023-04-22T08:13:50.840Z,21.20
2023-04-22T08:14:54.198Z,21.20
2023-04-22T08:15:56.714Z,21.30
2023-04-22T08:16:59.407Z,21.20
2023-04-22T08:18:02.050Z,21.20
2023-04-22T08:19:04.921Z,21.20
2023-04-22T08:20:09.093Z,21.10
2023-04-22T08:21:12.392Z,21.10
2023-04-22T08:22:15.356Z,21.20
2023-04-22T08:23:17.911Z,21.10
2023-04-22T08:24:20.938Z,21.10
2023-04-22T08:25:24.654Z,21.20
2023-04-22T08:26:27.945Z,21.20
2023-04-22T08:27:30.733Z,21.30
2023-04-22T08:28:33.337Z,21.30
2023-04-22T08:29:35.950Z,21.30
2023-04-22T08:30:38.472Z,21.30
2023-04-22T08:31:41.788Z,21.30
2023-04-22T08:32:45.932Z,21.30
2023-04-22T08:33:48.702Z,21.30
2023-04-22T08:34:52.128Z,21.30
2023-04-22T08:35:56.755Z,21.30
2023-04-22T08:36:59.333Z,21.30
2023-04-22T08:38:02.109Z,21.30
2023-04-22T08:39:05.668Z,21.30
2023-04-22T08:40:08.997Z,21.30
2023-04-22T08:41:12.773Z,21.30
2023-04-22T08:42:16.187Z,21.30
2023-04-22T08:43:19.014Z,21.20
2023-04-22T08:44:23.070Z,21.20
2023-04-22T08:45:25.463Z,21.20
2023-04-22T08:46:28.759Z,21.20
2023-04-22T08:47:35.053Z,21.30
2023-04-22T08:48:38.040Z,21.30
2023-04-22T08:49:41.148Z,21.30
2023-04-22T08:50:44.327Z,21.30
2023-04-22T08:51:47.154Z,21.30
2023-04-22T08:52:49.721Z,21.30
2023-04-22T08:53:52.749Z,21.30
2023-04-22T08:54:55.250Z,21.30
2023-04-22T08:55:58.284Z,21.30
2023-04-22T08:57:02.890Z,21.30
2023-04-22T08:58:06.374Z,21.30
2023-04-22T08:59:11.560Z,21.30
2023-04-22T09:00:15.020Z,21.30
2023-04-22T09:01:18.419Z,21.40
2023-04-22T09:02:21.632Z,21.40
2023-04-22T09:03:24.331Z,21.40
2023-04-22T09:04:27.006Z,21.40
2023-04-22T09:05:33.866Z,21.40
2023-04-22T09:06:37.953Z,21.40
2023-04-22T09:07:43.591Z,21.40
2023-04-22T09:08:48.499Z,21.40
2023-04-22T09:09:51.566Z,21.40
2023-04-22T09:10:54.258Z,21.40
2023-04-22T09:11:58.041Z,21.30
2023-04-22T09:13:01.394Z,21.30
2023-04-22T09:14:04.626Z,21.20
2023-04-22T09:15:08.865Z,21.20
2023-04-22T09:16:11.766Z,21.20
2023-04-22T09:17:19.178Z,21.20
2023-04-22T09:18:21.769Z,21.30
2023-04-22T09:19:25.597Z,21.30
2023-04-22T09:20:29.737Z,21.30
2023-04-22T09:21:34.122Z,21.30
2023-04-22T09:22:48.356Z,21.40
2023-04-22T09:23:52.691Z,21.30
2023-04-22T09:24:55.591Z,21.40
2023-04-22T09:25:59.194Z,21.40
2023-04-22T09:27:06.805Z,21.40
2023-04-22T09:28:13.120Z,21.40
2023-04-22T09:29:17.010Z,21.40
2023-04-22T09:30:25.214Z,21.40
2023-04-22T09:31:28.640Z,21.40
2023-04-22T09:32:31.236Z,21.40
2023-04-22T09:33:34.404Z,21.40
2023-04-22T09:34:52.935Z,21.40
2023-04-22T09:35:56.325Z,21.50
2023-04-22T09:37:00.691Z,21.40
2023-04-22T09:38:06.389Z,21.50
2023-04-22T09:39:09.404Z,21.50
2023-04-22T09:40:16.289Z,21.40
2023-04-22T09:41:19.166Z,21.40
2023-04-22T09:42:22.570Z,21.40
2023-04-22T09:43:25.550Z,21.40
2023-04-22T09:44:28.909Z,21.40
2023-04-22T09:45:33.973Z,21.40
2023-04-22T09:46:36.804Z,21.40
2023-04-22T09:47:39.509Z,21.30
2023-04-22T09:48:47.488Z,21.30
2023-04-22T09:49:50.589Z,21.20
2023-04-22T09:50:53.002Z,21.20
2023-04-22T09:51:57.313Z,21.10
2023-04-22T09:53:02.362Z,21.10
2023-04-22T09:54:10.219Z,21.10
2023-04-22T09:55:12.737Z,21.10
2023-04-22T09:56:15.217Z,21.10
2023-04-22T09:57:18.376Z,21.20
2023-04-22T09:58:23.781Z,21.20
2023-04-22T09:59:28.582Z,21.30
2023-04-22T10:00:31.530Z,21.30
2023-04-22T10:01:39.442Z,21.30
2023-04-22T10:02:42.188Z,21.30
2023-04-22T10:03:45.056Z,21.30
2023-04-22T10:04:48.511Z,21.40
2023-04-22T10:05:51.070Z,21.40
2023-04-22T10:06:54.641Z,21.40
2023-04-22T10:07:57.232Z,21.40
2023-04-22T10:09:00.379Z,21.40
2023-04-22T10:10:03.712Z,21.30
2023-04-22T10:11:06.130Z,21.30
2023-04-22T10:12:08.794Z,21.30
2023-04-22T10:13:12.507Z,21.30
2023-04-22T10:14:15.341Z,21.30
2023-04-22T10:15:19.085Z,21.40
2023-04-22T10:16:23.138Z,21.40
2023-04-22T10:17:26.010Z,21.40
2023-04-22T10:18:30.599Z,21.40
2023-04-22T10:19:35.180Z,21.40
2023-04-22T10:20:40.838Z,21.40
2023-04-22T10:21:45.624Z,21.40
2023-04-22T10:22:48.192Z,21.40
2023-04-22T10:23:51.043Z,21.40
2023-04-22T10:24:56.262Z,21.40
2023-04-22T10:25:59.100Z,21.50
2023-04-22T10:27:06.624Z,21.50
2023-04-22T10:28:10.834Z,21.40
2023-04-22T10:29:18.665Z,21.50
2023-04-22T10:30:28.921Z,21.40
2023-04-22T10:31:32.544Z,21.40
2023-04-22T10:32:35.050Z,21.40
2023-04-22T10:33:39.475Z,21.40
2023-04-22T10:34:42.039Z,21.40
2023-04-22T10:36:10.446Z,21.40
2023-04-22T10:37:15.189Z,21.40
2023-04-22T10:38:17.602Z,21.40
2023-04-22T10:39:22.080Z,21.40
2023-04-22T10:40:24.748Z,21.40
2023-04-22T10:41:32.539Z,21.40
2023-04-22T10:42:35.237Z,21.40
2023-04-22T10:43:42.844Z,21.40
2023-04-22T10:44:52.947Z,21.40
2023-04-22T10:45:55.449Z,21.40
2023-04-22T10:46:59.671Z,21.30
2023-04-22T10:48:05.352Z,21.30
2023-04-22T10:49:12.465Z,21.30
2023-04-22T10:50:31.437Z,21.30
2023-04-22T10:51:49.928Z,21.40
2023-04-22T10:52:59.418Z,21.30
2023-04-22T10:54:02.933Z,21.30
2023-04-22T10:55:06.207Z,21.40
2023-04-22T10:56:18.204Z,21.40
2023-04-22T10:57:24.433Z,21.40
2023-04-22T10:58:26.915Z,21.40
2023-04-22T10:59:29.968Z,21.40
2023-04-22T11:00:52.571Z,21.40
2023-04-22T11:02:01.656Z,21.40
2023-04-22T11:03:13.944Z,21.40
2023-04-22T11:04:22.996Z,21.50
2023-04-22T11:05:27.897Z,21.40
2023-04-22T11:06:31.129Z,21.40
2023-04-22T11:07:35.614Z,21.40
2023-04-22T11:08:38.177Z,21.40
2023-04-22T11:09:41.431Z,21.50
2023-04-22T11:10:46.311Z,21.50
2023-04-22T11:11:51.082Z,21.50
2023-04-22T11:12:56.002Z,21.50
2023-04-22T11:13:58.860Z,21.50
2023-04-22T11:15:10.465Z,21.50
2023-04-22T11:16:12.882Z,21.50
2023-04-22T11:17:15.844Z,21.50
2023-04-22T11:18:23.022Z,21.50
2023-04-22T11:19:25.528Z,21.50
2023-04-22T11:20:29.232Z,21.50
2023-04-22T11:21:32.528Z,21.50
2023-04-22T11:22:39.798Z,21.50
2023-04-22T11:23:55.321Z,21.50
2023-04-22T11:24:58.879Z,21.50
2023-04-22T11:26:03.781Z,21.50
2023-04-22T11:27:06.462Z,21.50
2023-04-22T11:28:09.077Z,21.50
2023-04-22T11:29:11.426Z,21.50
2023-04-22T11:30:19.612Z,21.40
2023-04-22T11:31:21.992Z,21.40
2023-04-22T11:32:24.421Z,21.40
2023-04-22T11:33:26.796Z,21.40
2023-04-22T11:34:29.801Z,21.40
2023-04-22T11:35:35.931Z,21.40
2023-04-22T11:36:38.276Z,21.40
2023-04-22T11:37:55.988Z,21.50
2023-04-22T11:38:59.288Z,21.40
2023-04-22T11:40:21.358Z,21.40
2023-04-22T11:41:25.098Z,21.50
2023-04-22T11:42:27.477Z,21.50
2023-04-22T11:43:29.821Z,21.50
2023-04-22T11:44:32.206Z,21.50
2023-04-22T11:45:36.766Z,21.40
2023-04-22T11:46:39.335Z,21.40
2023-04-22T11:47:42.257Z,21.40
2023-04-22T11:48:44.587Z,21.40
2023-04-22T11:50:01.958Z,21.40
2023-04-22T11:51:11.199Z,21.40
2023-04-22T11:52:14.272Z,21.50
2023-04-22T11:53:18.760Z,21.40
2023-04-22T11:54:50.465Z,21.40
2023-04-22T11:55:52.909Z,21.40
2023-04-22T11:56:55.216Z,21.40
2023-04-22T11:58:07.784Z,21.50
2023-04-22T11:59:10.485Z,21.50
2023-04-22T12:00:14.997Z,21.50
2023-04-22T12:01:18.166Z,21.50
2023-04-22T12:02:20.848Z,21.50
2023-04-22T12:03:27.997Z,21.60
2023-04-22T12:04:39.987Z,21.50
2023-04-22T12:05:47.115Z,21.60
2023-04-22T12:06:52.025Z,21.60
2023-04-22T12:07:54.332Z,21.50
2023-04-22T12:08:56.698Z,21.60
2023-04-22T12:10:01.287Z,21.60
2023-04-22T12:11:06.995Z,21.60
2023-04-22T12:12:10.207Z,21.60
2023-04-22T12:13:42.957Z,21.60
2023-04-22T12:14:47.194Z,21.60
2023-04-22T12:15:55.063Z,21.50
2023-04-22T12:16:57.494Z,21.50
2023-04-22T12:18:02.262Z,21.50
2023-04-22T12:19:04.722Z,21.50
2023-04-22T12:20:10.994Z,21.50
2023-04-22T12:21:17.808Z,21.50
2023-04-22T12:22:27.916Z,21.50
2023-04-22T12:23:31.959Z,21.50
2023-04-22T12:24:34.581Z,21.50
2023-04-22T12:25:37.012Z,21.60
2023-04-22T12:26:39.794Z,21.60
2023-04-22T12:27:43.172Z,21.50
2023-04-22T12:28:46.790Z,21.60
2023-04-22T12:29:55.203Z,21.60
2023-04-22T12:30:57.951Z,21.70
2023-04-22T12:32:01.214Z,21.70
2023-04-22T12:33:07.186Z,21.70
2023-04-22T12:34:09.939Z,21.70
2023-04-22T12:35:12.786Z,21.70
2023-04-22T12:36:15.709Z,21.70
2023-04-22T12:37:18.929Z,21.70
2023-04-22T12:38:21.947Z,21.70
2023-04-22T12:39:24.556Z,21.70
2023-04-22T12:40:27.177Z,21.80
2023-04-22T12:41:29.882Z,21.70
2023-04-22T12:44:24.450Z,21.70
2023-04-22T12:45:27.484Z,21.70
2023-04-22T12:46:29.837Z,21.70
2023-04-22T12:47:32.324Z,21.70
2023-04-22T12:48:38.758Z,21.70
2023-04-22T12:49:42.541Z,21.70
2023-04-22T12:50:46.446Z,21.70
2023-04-22T12:51:49.069Z,21.70
2023-04-22T12:52:51.489Z,21.70
2023-04-22T12:53:53.825Z,21.70
2023-04-22T12:54:57.373Z,21.70
2023-04-22T12:55:59.895Z,21.70
2023-04-22T12:57:02.614Z,21.70
2023-04-22T12:58:05.177Z,21.70
2023-04-22T12:59:07.446Z,21.70
2023-04-22T13:00:14.288Z,21.70
2023-04-22T13:01:16.724Z,21.70
2023-04-22T13:02:19.647Z,21.80
2023-04-22T13:03:22.109Z,21.70
2023-04-22T13:04:24.866Z,21.80
2023-04-22T13:05:27.357Z,21.80
2023-04-22T13:06:29.834Z,21.80
2023-04-22T13:07:32.534Z,21.70
2023-04-22T13:08:34.898Z,21.60
2023-04-22T13:09:37.298Z,21.60
2023-04-22T13:10:39.842Z,21.70
2023-04-22T13:11:43.236Z,21.70
2023-04-22T13:12:45.534Z,21.70
2023-04-22T13:13:47.960Z,21.70
2023-04-22T13:14:50.505Z,21.80
2023-04-22T13:15:54.175Z,21.80
2023-04-22T13:16:57.542Z,21.70
2023-04-22T13:18:00.412Z,21.60
2023-04-22T13:19:02.971Z,21.70
2023-04-22T13:20:09.451Z,21.70
2023-04-22T13:21:15.135Z,21.70
2023-04-22T13:34:00.511Z,21.80
2023-04-22T13:35:11.910Z,21.70
2023-04-22T13:36:14.373Z,21.70
2023-04-22T13:37:19.373Z,21.60
2023-04-22T13:38:21.899Z,21.60
2023-04-22T13:39:25.092Z,21.50
2023-04-22T13:40:27.824Z,21.50
2023-04-22T13:41:30.216Z,21.50
2023-04-22T13:42:32.686Z,21.60
2023-04-22T13:43:35.126Z,21.50
2023-04-22T13:44:38.546Z,21.50
2023-04-22T13:45:42.557Z,21.60
2023-04-22T13:46:45.231Z,21.60
2023-04-22T13:47:47.572Z,21.60
2023-04-22T13:48:49.992Z,21.60
2023-04-22T13:49:52.429Z,21.60
2023-04-22T13:50:55.923Z,21.60
2023-04-22T13:51:58.384Z,21.60
2023-04-22T13:53:00.907Z,21.60
2023-04-22T13:54:05.051Z,21.60
2023-04-22T13:55:08.156Z,21.60
2023-04-22T13:56:10.936Z,21.60
2023-04-22T13:57:13.486Z,21.60
2023-04-22T13:58:15.852Z,21.60
2023-04-22T13:59:18.188Z,21.70
2023-04-22T14:00:20.966Z,21.60
2023-04-22T14:01:25.914Z,21.60
2023-04-22T14:02:28.554Z,21.60
2023-04-22T14:03:31.307Z,21.60